Time;durP1;ratioP1;P1;durP2;ratioP2;P2;SDS_P1;SDS_P2;PMS_P1;PMS_P2;Temp;Humidity;BMP_temperature;BMP_pressure;BME280_temperature;BME280_humidity;BME280_pressure;Samples;Min_cycle;Max_cycle;Signal;HPM_P1;HPM_P2
2022/09/09 00:01:09;;;;;;;10.43;2.70;;;10.60;99.90;;;;;;5088501;28;20135;-50
2022/09/09 00:03:53;;;;;;;4.55;2.20;;;10.50;99.90;;;;;;5071590;28;20115;-49
2022/09/09 00:06:28;;;;;;;7.72;3.20;;;10.50;99.90;;;;;;5071826;28;20036;-50
2022/09/09 00:09:20;;;;;;;9.02;2.40;;;10.50;99.90;;;;;;5071351;28;20527;-51
2022/09/09 00:11:52;;;;;;;7.45;2.65;;;10.60;99.90;;;;;;5079961;28;20031;-52
2022/09/09 00:14:23;;;;;;;3.00;2.17;;;10.70;99.90;;;;;;5084004;28;20074;-50
2022/09/09 00:16:58;;;;;;;7.93;2.88;;;10.70;99.90;;;;;;5083621;28;20533;-49
2022/09/09 00:19:44;;;;;;;4.47;2.45;;;10.80;99.90;;;;;;5082010;28;20511;-49
2022/09/09 00:22:18;;;;;;;5.53;2.70;;;10.80;99.90;;;;;;5091415;28;20518;-51
2022/09/09 00:24:46;;;;;;;9.55;2.90;;;10.80;99.90;;;;;;5091114;28;20054;-51
2022/09/09 00:27:37;;;;;;;14.70;2.95;;;10.90;99.90;;;;;;5087455;28;20020;-50
2022/09/09 00:30:14;;;;;;;10.07;3.40;;;10.90;99.90;;;;;;5073492;28;20028;-50
2022/09/09 00:32:41;;;;;;;7.75;3.00;;;11.00;99.90;;;;;;5081631;28;20493;-51
2022/09/09 00:35:23;;;;;;;8.98;2.83;;;11.00;99.90;;;;;;5075807;28;20426;-50
2022/09/09 00:37:53;;;;;;;3.53;2.95;;;11.00;99.90;;;;;;5072136;28;20119;-51
2022/09/09 00:40:26;;;;;;;3.83;2.40;;;11.00;99.90;;;;;;5070872;28;20067;-50
2022/09/09 00:43:20;;;;;;;9.45;2.40;;;11.00;99.90;;;;;;5089570;28;20032;-50
2022/09/09 00:45:59;;;;;;;11.43;3.05;;;11.00;99.90;;;;;;5073488;28;20416;-50
2022/09/09 00:48:36;;;;;;;4.28;2.40;;;11.10;99.90;;;;;;5064469;28;20027;-51
2022/09/09 00:51:11;;;;;;;10.13;2.80;;;11.10;99.90;;;;;;5079458;28;20063;-49
2022/09/09 00:53:58;;;;;;;6.68;2.38;;;11.20;99.90;;;;;;5070750;28;20127;-49
2022/09/09 00:56:36;;;;;;;2.83;1.83;;;11.20;99.90;;;;;;5070477;28;20125;-49
2022/09/09 00:59:14;;;;;;;5.00;2.40;;;11.20;99.90;;;;;;5071035;28;20021;-50
2022/09/09 01:01:40;;;;;;;2.45;2.25;;;11.20;99.90;;;;;;5070465;28;20039;-50
2022/09/09 01:04:16;;;;;;;2.67;2.40;;;11.30;99.90;;;;;;5070572;28;20387;-50
2022/09/09 01:06:46;;;;;;;8.68;2.58;;;11.30;99.90;;;;;;5080117;28;20509;-50
2022/09/09 01:09:38;;;;;;;15.05;2.38;;;11.30;99.90;;;;;;5089113;28;20044;-51
2022/09/09 01:12:16;;;;;;;4.38;2.30;;;11.20;99.90;;;;;;5090386;28;20390;-49
2022/09/09 01:15:10;;;;;;;7.57;2.13;;;11.30;99.90;;;;;;5090469;28;20115;-51
2022/09/09 01:17:44;;;;;;;2.72;2.20;;;11.30;99.90;;;;;;5087593;28;20020;-50
2022/09/09 01:20:19;;;;;;;4.90;2.17;;;11.30;99.90;;;;;;5070663;28;20383;-51
2022/09/09 01:23:08;;;;;;;5.85;2.55;;;11.30;99.90;;;;;;5075114;28;20020;-50
2022/09/09 01:25:43;;;;;;;3.05;2.30;;;11.30;99.90;;;;;;5073923;28;20056;-51
2022/09/09 01:28:15;;;;;;;7.72;2.40;;;11.30;99.90;;;;;;5069049;28;20108;-50
2022/09/09 01:30:41;;;;;;;3.70;2.40;;;11.30;99.90;;;;;;5069963;28;20032;-50
2022/09/09 01:33:16;;;;;;;2.10;2.00;;;11.40;99.90;;;;;;5071263;28;20021;-50
2022/09/09 01:36:00;;;;;;;10.18;2.50;;;11.40;99.90;;;;;;5070186;28;20649;-49
2022/09/09 01:38:27;;;;;;;3.78;2.20;;;11.40;99.90;;;;;;5068808;28;20060;-50
2022/09/09 01:40:53;;;;;;;8.18;2.30;;;11.40;99.90;;;;;;5068896;28;20450;-50
2022/09/09 01:43:24;;;;;;;6.50;2.10;;;11.40;99.90;;;;;;5070850;28;20134;-49
2022/09/09 01:45:54;;;;;;;6.60;2.13;;;11.40;99.90;;;;;;5088285;28;20031;-49
2022/09/09 01:48:22;;;;;;;12.93;2.97;;;11.40;99.90;;;;;;5077370;28;20553;-49
2022/09/09 01:50:48;;;;;;;3.42;2.28;;;11.40;99.90;;;;;;5093766;28;20050;-50
2022/09/09 01:53:16;;;;;;;3.20;2.60;;;11.50;99.90;;;;;;5094399;28;20494;-50
2022/09/09 01:56:01;;;;;;;7.82;2.13;;;11.50;99.90;;;;;;5094297;28;20024;-50
2022/09/09 01:58:53;;;;;;;3.38;2.40;;;11.50;99.90;;;;;;5094285;28;20028;-50
2022/09/09 02:01:41;;;;;;;5.53;2.40;;;11.60;99.90;;;;;;5040691;28;20411;-51
2022/09/09 02:04:37;;;;;;;3.22;2.20;;;11.60;99.90;;;;;;5080861;28;20024;-49
2022/09/09 02:07:14;;;;;;;6.53;2.45;;;11.60;99.90;;;;;;5093493;28;20028;-50
2022/09/09 02:09:44;;;;;;;6.00;2.45;;;11.60;99.90;;;;;;5094022;28;20524;-49
2022/09/09 02:12:14;;;;;;;7.72;2.05;;;11.60;99.90;;;;;;5093809;28;20028;-51
2022/09/09 02:14:46;;;;;;;9.35;3.00;;;11.60;99.90;;;;;;5093832;28;20847;-49
2022/09/09 02:17:18;;;;;;;6.93;3.08;;;11.60;99.90;;;;;;5093458;28;20521;-51
2022/09/09 02:19:52;;;;;;;6.30;3.08;;;11.70;99.90;;;;;;5083892;28;20031;-49
2022/09/09 02:22:22;;;;;;;7.47;2.70;;;11.70;99.90;;;;;;5073509;28;20062;-51
2022/09/09 02:24:50;;;;;;;5.50;2.70;;;11.70;99.90;;;;;;5074394;28;20020;-51
2022/09/09 02:27:19;;;;;;;8.95;3.55;;;11.80;99.90;;;;;;5072340;28;20037;-51
2022/09/09 02:29:47;;;;;;;3.55;2.72;;;11.80;99.90;;;;;;5074584;28;20023;-50
2022/09/09 02:32:17;;;;;;;4.35;2.92;;;11.80;99.90;;;;;;5080172;28;20028;-50
2022/09/09 02:34:50;;;;;;;7.18;3.00;;;11.70;99.90;;;;;;5093269;28;20016;-50
2022/09/09 02:37:19;;;;;;;5.38;2.85;;;11.80;99.90;;;;;;5093228;28;20027;-50
2022/09/09 02:39:46;;;;;;;8.98;3.90;;;11.80;99.90;;;;;;5093278;28;20483;-49
2022/09/09 02:42:14;;;;;;;3.90;3.13;;;11.70;99.90;;;;;;5092664;28;20035;-50
2022/09/09 02:44:41;;;;;;;8.20;3.05;;;11.70;99.90;;;;;;5092455;28;20027;-50
2022/09/09 02:47:10;;;;;;;10.60;2.67;;;11.70;99.90;;;;;;5092999;28;20032;-50
2022/09/09 02:49:53;;;;;;;8.93;2.53;;;11.70;99.90;;;;;;5091354;28;20028;-50
2022/09/09 02:52:25;;;;;;;13.53;3.63;;;11.70;99.90;;;;;;5080881;28;20518;-52
2022/09/09 02:54:58;;;;;;;5.38;2.78;;;11.70;99.90;;;;;;5092868;28;20277;-50
2022/09/09 02:57:27;;;;;;;5.25;3.38;;;11.60;99.90;;;;;;5082469;28;20056;-50
2022/09/09 02:59:54;;;;;;;7.35;3.60;;;11.60;99.90;;;;;;5073003;28;20364;-50
2022/09/09 03:02:20;;;;;;;3.83;2.63;;;11.60;99.90;;;;;;5084137;28;20076;-52
2022/09/09 03:04:50;;;;;;;7.05;2.65;;;11.60;99.90;;;;;;5073464;28;20027;-49
2022/09/09 03:07:16;;;;;;;4.18;2.78;;;11.60;99.90;;;;;;5072666;28;20071;-51
2022/09/09 03:09:42;;;;;;;4.43;2.83;;;11.60;99.90;;;;;;5072388;28;20097;-51
2022/09/09 03:12:10;;;;;;;7.53;2.90;;;11.60;99.90;;;;;;5072747;28;20040;-52
2022/09/09 03:14:37;;;;;;;5.55;2.70;;;11.60;99.90;;;;;;5072465;28;20052;-50
2022/09/09 03:17:04;;;;;;;5.40;3.03;;;11.60;99.90;;;;;;5072421;28;20031;-50
2022/09/09 03:19:31;;;;;;;10.27;3.20;;;11.50;99.90;;;;;;5072447;28;20458;-50
2022/09/09 03:22:00;;;;;;;2.80;2.60;;;11.40;99.90;;;;;;5084997;28;20028;-52
2022/09/09 03:24:25;;;;;;;5.15;2.97;;;11.40;99.90;;;;;;5091276;28;20020;-50
2022/09/09 03:26:51;;;;;;;12.75;2.80;;;11.40;99.90;;;;;;5085120;28;20028;-51
2022/09/09 03:29:18;;;;;;;5.35;3.13;;;11.30;99.90;;;;;;5073504;28;20031;-50
2022/09/09 03:31:44;;;;;;;7.20;3.10;;;11.40;99.90;;;;;;5078763;28;20077;-52
2022/09/09 03:34:10;;;;;;;11.10;3.10;;;11.30;99.90;;;;;;5085990;28;20036;-49
2022/09/09 03:36:36;;;;;;;4.43;2.70;;;11.30;99.90;;;;;;5074830;28;20043;-50
2022/09/09 03:39:03;;;;;;;3.95;3.13;;;11.30;99.90;;;;;;5084469;28;20024;-51
2022/09/09 03:41:29;;;;;;;5.45;2.97;;;11.30;99.90;;;;;;5091802;28;20036;-50
2022/09/09 03:43:55;;;;;;;4.90;2.65;;;11.30;99.90;;;;;;5073114;28;20040;-50
2022/09/09 03:46:23;;;;;;;3.60;3.05;;;11.30;99.90;;;;;;5073447;28;20074;-53
2022/09/09 03:48:49;;;;;;;9.55;3.33;;;11.20;99.90;;;;;;5092074;28;20020;-49
2022/09/09 03:51:15;;;;;;;5.47;3.08;;;11.20;99.90;;;;;;5091674;28;20494;-50
2022/09/09 03:53:42;;;;;;;6.85;3.30;;;11.20;99.90;;;;;;5082242;28;20021;-52
2022/09/09 03:56:09;;;;;;;7.78;3.30;;;11.20;99.90;;;;;;5091856;28;20059;-49
2022/09/09 03:58:36;;;;;;;5.53;3.15;;;11.20;99.90;;;;;;5091138;28;20028;-50
2022/09/09 04:01:12;;;;;;;5.68;3.42;;;11.20;99.90;;;;;;5074292;28;20108;-49
2022/09/09 04:03:39;;;;;;;3.70;2.80;;;11.10;99.90;;;;;;5087971;28;20501;-50
2022/09/09 04:06:07;;;;;;;6.95;2.50;;;11.20;99.90;;;;;;5091416;28;20036;-50
2022/09/09 04:08:35;;;;;;;7.38;2.58;;;11.20;99.90;;;;;;5074100;28;20028;-51
2022/09/09 04:11:05;;;;;;;3.47;2.70;;;11.20;99.90;;;;;;5071072;28;20020;-52
2022/09/09 04:13:37;;;;;;;5.72;3.20;;;11.20;99.90;;;;;;5071433;28;20384;-50
2022/09/09 04:16:03;;;;;;;9.07;3.13;;;11.20;99.90;;;;;;5071692;28;20420;-51
2022/09/09 04:18:30;;;;;;;11.30;3.20;;;11.10;99.90;;;;;;5071402;28;20429;-51
2022/09/09 04:20:57;;;;;;;3.20;2.95;;;11.20;99.90;;;;;;5072396;28;20051;-50
2022/09/09 04:23:24;;;;;;;8.68;3.50;;;11.20;99.90;;;;;;5071062;28;20025;-51
2022/09/09 04:25:52;;;;;;;5.15;3.05;;;11.20;99.90;;;;;;5072253;28;20271;-50
2022/09/09 04:28:19;;;;;;;5.00;3.80;;;11.10;99.90;;;;;;5071280;28;20021;-51
2022/09/09 04:30:45;;;;;;;6.18;3.38;;;11.20;99.90;;;;;;5089522;28;20024;-51
2022/09/09 04:33:13;;;;;;;9.05;3.58;;;11.20;99.90;;;;;;5074341;28;20047;-50
2022/09/09 04:35:39;;;;;;;7.68;2.80;;;11.20;99.90;;;;;;5079550;28;20425;-51
2022/09/09 04:38:09;;;;;;;7.63;3.00;;;11.40;99.90;;;;;;5091010;28;20034;-49
2022/09/09 04:40:35;;;;;;;3.38;3.08;;;11.40;99.90;;;;;;5090774;28;20020;-50
2022/09/09 04:43:03;;;;;;;5.32;3.28;;;11.50;99.90;;;;;;5091046;28;20035;-51
2022/09/09 04:45:30;;;;;;;7.78;4.10;;;11.50;99.90;;;;;;5090937;28;20058;-49
2022/09/09 04:47:55;;;;;;;9.02;3.50;;;11.50;99.90;;;;;;5090673;28;20102;-49
2022/09/09 04:50:21;;;;;;;6.57;3.40;;;11.60;99.90;;;;;;5090646;28;20041;-50
2022/09/09 04:52:46;;;;;;;9.93;3.70;;;11.60;99.90;;;;;;5090728;28;20031;-49
2022/09/09 04:55:12;;;;;;;10.02;2.97;;;11.70;99.90;;;;;;5089243;28;20024;-52
2022/09/09 04:57:39;;;;;;;5.32;3.95;;;11.80;99.90;;;;;;5088908;28;20024;-52
2022/09/09 05:00:05;;;;;;;7.05;3.30;;;11.80;99.90;;;;;;5077050;28;20037;-51
2022/09/09 05:02:31;;;;;;;5.30;3.10;;;11.90;99.90;;;;;;5070737;28;20024;-50
2022/09/09 05:04:58;;;;;;;4.32;3.03;;;12.00;99.90;;;;;;5090576;28;20024;-49
2022/09/09 05:07:26;;;;;;;9.55;3.05;;;12.10;99.90;;;;;;5090177;28;20044;-51
2022/09/09 05:09:51;;;;;;;10.48;3.78;;;12.10;99.90;;;;;;5090187;28;20046;-50
2022/09/09 05:12:17;;;;;;;7.28;2.90;;;12.20;99.90;;;;;;5090113;28;20028;-51
2022/09/09 05:14:43;;;;;;;4.93;2.88;;;12.30;99.90;;;;;;5090663;28;20027;-50
2022/09/09 05:17:10;;;;;;;4.78;3.22;;;12.40;99.90;;;;;;5090463;28;20043;-50
2022/09/09 05:19:36;;;;;;;6.88;3.72;;;12.40;99.90;;;;;;5090225;28;20394;-50
2022/09/09 05:22:02;;;;;;;6.72;3.10;;;12.50;99.90;;;;;;5089418;28;20024;-51
2022/09/09 05:24:28;;;;;;;6.47;3.03;;;12.60;99.90;;;;;;5090008;28;20032;-50
2022/09/09 05:26:53;;;;;;;9.90;3.08;;;12.70;99.90;;;;;;5081419;28;20048;-50
2022/09/09 05:29:19;;;;;;;3.42;2.97;;;12.90;99.90;;;;;;5070652;28;20108;-50
2022/09/09 05:31:46;;;;;;;7.80;3.45;;;13.00;99.90;;;;;;5073907;28;20024;-51
2022/09/09 05:34:12;;;;;;;8.95;2.63;;;13.10;99.90;;;;;;5079662;28;20087;-50
2022/09/09 05:36:38;;;;;;;3.15;2.92;;;13.30;99.90;;;;;;5071048;28;20062;-50
2022/09/09 05:39:04;;;;;;;4.90;4.00;;;13.30;99.90;;;;;;5074447;28;20017;-50
2022/09/09 05:41:30;;;;;;;2.90;2.63;;;13.40;99.90;;;;;;5074666;28;20032;-51
2022/09/09 05:43:56;;;;;;;6.03;2.80;;;13.50;99.90;;;;;;5091419;28;20028;-52
2022/09/09 05:46:24;;;;;;;3.03;2.53;;;13.50;99.90;;;;;;5083372;28;20051;-50
2022/09/09 05:48:51;;;;;;;4.63;2.78;;;13.50;99.90;;;;;;5069912;28;20556;-50
2022/09/09 05:51:21;;;;;;;8.35;2.70;;;13.50;99.90;;;;;;5070006;28;20365;-63
2022/09/09 05:53:48;;;;;;;2.85;2.58;;;13.50;99.90;;;;;;5070044;28;20029;-50
2022/09/09 05:56:19;;;;;;;2.60;2.38;;;13.50;99.90;;;;;;5069875;28;20041;-50
2022/09/09 05:58:49;;;;;;;6.40;2.58;;;13.60;99.90;;;;;;5074324;28;20024;-50
2022/09/09 06:01:19;;;;;;;11.07;2.30;;;13.70;99.90;;;;;;5087937;28;20028;-50
2022/09/09 06:03:46;;;;;;;3.00;2.45;;;13.60;99.90;;;;;;5054323;28;20475;-51
2022/09/09 06:06:20;;;;;;;6.40;2.50;;;13.70;99.90;;;;;;5068458;28;20071;-49
2022/09/09 06:08:46;;;;;;;3.72;2.50;;;13.90;99.90;;;;;;5069106;28;20134;-49
2022/09/09 06:11:22;;;;;;;4.22;2.30;;;14.10;99.90;;;;;;5069870;28;20051;-50
2022/09/09 06:13:51;;;;;;;4.25;2.40;;;14.00;99.90;;;;;;5069820;28;20021;-49
2022/09/09 06:16:19;;;;;;;4.32;2.75;;;14.10;99.90;;;;;;5077275;28;20077;-50
2022/09/09 06:18:45;;;;;;;6.60;2.67;;;14.00;99.90;;;;;;5089707;28;20035;-49
2022/09/09 06:21:21;;;;;;;5.28;2.42;;;14.10;99.90;;;;;;5089818;28;20032;-51
2022/09/09 06:23:48;;;;;;;3.47;2.22;;;14.20;99.90;;;;;;5088215;28;20127;-51
2022/09/09 06:26:20;;;;;;;2.20;2.10;;;14.40;99.90;;;;;;5087044;28;20499;-54
2022/09/09 06:28:47;;;;;;;6.13;2.40;;;14.40;99.90;;;;;;5088034;28;20115;-50
2022/09/09 06:31:17;;;;;;;6.72;2.60;;;14.50;99.90;;;;;;5079587;28;20221;-49
2022/09/09 06:33:44;;;;;;;3.50;2.50;;;14.50;99.90;;;;;;5070703;28;20021;-50
2022/09/09 06:36:15;;;;;;;5.50;2.53;;;14.60;99.90;;;;;;5072876;28;20023;-50
2022/09/09 06:38:42;;;;;;;4.75;3.10;;;14.80;99.90;;;;;;5072355;28;20032;-49
2022/09/09 06:41:09;;;;;;;4.80;2.28;;;14.70;99.90;;;;;;5072936;28;20024;-51
2022/09/09 06:43:35;;;;;;;4.80;2.60;;;14.70;99.90;;;;;;5073082;28;20029;-49
2022/09/09 06:46:03;;;;;;;6.63;3.00;;;14.80;99.90;;;;;;5073079;28;20078;-50
2022/09/09 06:48:29;;;;;;;4.68;2.42;;;15.00;99.90;;;;;;5072870;28;20013;-50
2022/09/09 06:51:11;;;;;;;5.13;2.72;;;15.10;99.90;;;;;;5072926;28;20141;-50
2022/09/09 06:53:38;;;;;;;2.88;2.58;;;15.00;99.90;;;;;;5072872;28;20480;-51
2022/09/09 06:56:10;;;;;;;2.72;2.53;;;15.10;99.90;;;;;;5072972;28;20476;-50
2022/09/09 06:58:45;;;;;;;5.57;2.40;;;15.00;99.90;;;;;;5072839;28;20107;-51
2022/09/09 07:01:13;;;;;;;2.38;2.17;;;15.00;99.90;;;;;;5072800;28;20029;-51
2022/09/09 07:03:40;;;;;;;5.43;2.95;;;15.00;99.90;;;;;;5073423;28;20032;-49
2022/09/09 07:06:07;;;;;;;2.90;2.22;;;15.00;99.90;;;;;;5072592;28;20025;-51
2022/09/09 07:08:33;;;;;;;2.50;2.25;;;14.90;99.90;;;;;;5072367;28;20098;-51
2022/09/09 07:11:06;;;;;;;7.32;2.42;;;15.00;99.90;;;;;;5072754;28;20037;-50
2022/09/09 07:13:33;;;;;;;2.65;2.45;;;15.10;99.90;;;;;;5072280;28;20027;-52
2022/09/09 07:16:11;;;;;;;10.02;3.08;;;15.10;99.90;;;;;;5072576;28;20143;-51
2022/09/09 07:18:37;;;;;;;8.27;3.22;;;15.30;99.90;;;;;;5073670;28;20616;-50
2022/09/09 07:21:08;;;;;;;5.55;2.65;;;15.40;99.90;;;;;;5073619;28;20060;-50
2022/09/09 07:23:35;;;;;;;3.40;2.35;;;15.30;99.90;;;;;;5073507;28;20032;-51
2022/09/09 07:26:02;;;;;;;11.43;3.38;;;15.30;99.90;;;;;;5074750;28;20021;-51
2022/09/09 07:28:30;;;;;;;5.32;2.63;;;15.30;99.90;;;;;;5085123;28;20107;-54
2022/09/09 07:30:58;;;;;;;6.40;2.60;;;15.30;99.90;;;;;;5081348;28;20020;-51
2022/09/09 07:33:25;;;;;;;3.20;2.40;;;15.50;99.90;;;;;;5077096;28;20059;-53
2022/09/09 07:35:51;;;;;;;5.50;2.72;;;15.40;99.90;;;;;;5073473;28;20552;-50
2022/09/09 07:38:19;;;;;;;6.22;2.90;;;15.30;99.90;;;;;;5073347;28;20631;-52
2022/09/09 07:40:45;;;;;;;6.20;2.90;;;15.30;99.90;;;;;;5073210;28;20028;-50
2022/09/09 07:43:11;;;;;;;5.97;2.50;;;15.30;99.90;;;;;;5073275;28;20032;-49
2022/09/09 07:45:37;;;;;;;2.63;2.38;;;15.30;99.90;;;;;;5072210;28;20471;-51
2022/09/09 07:48:03;;;;;;;3.60;2.85;;;15.50;99.90;;;;;;5087897;28;20057;-51
2022/09/09 07:50:29;;;;;;;4.15;2.88;;;15.60;99.90;;;;;;5093107;28;20024;-50
2022/09/09 07:52:55;;;;;;;9.15;2.05;;;15.80;99.90;;;;;;5093296;28;20024;-50
2022/09/09 07:55:22;;;;;;;8.40;2.80;;;15.80;99.90;;;;;;5093272;28;20020;-51
2022/09/09 07:57:47;;;;;;;4.43;2.60;;;15.80;99.90;;;;;;5076902;28;20082;-53
2022/09/09 08:00:14;;;;;;;9.60;2.75;;;15.90;99.90;;;;;;5072768;28;20024;-54
2022/09/09 08:02:40;;;;;;;11.00;3.53;;;15.90;99.90;;;;;;5072999;28;20071;-52
2022/09/09 08:05:06;;;;;;;6.50;3.25;;;15.90;99.90;;;;;;5072014;28;20048;-50
2022/09/09 08:07:32;;;;;;;7.93;6.03;;;16.10;99.90;;;;;;5071766;28;20097;-50
2022/09/09 08:09:58;;;;;;;4.38;3.97;;;16.20;99.90;;;;;;5089802;27;20037;-51
2022/09/09 08:12:24;;;;;;;7.15;3.28;;;16.30;99.90;;;;;;5052610;28;20540;-51
2022/09/09 08:14:51;;;;;;;9.88;3.58;;;16.40;99.90;;;;;;5052591;28;20464;-50
2022/09/09 08:17:17;;;;;;;4.50;2.58;;;16.60;99.90;;;;;;5057095;28;20024;-54
2022/09/09 08:19:44;;;;;;;5.47;2.90;;;16.60;99.90;;;;;;5072641;28;20040;-49
2022/09/09 08:22:10;;;;;;;2.90;2.60;;;16.70;99.90;;;;;;5072582;28;20421;-50
2022/09/09 08:24:35;;;;;;;2.70;2.50;;;16.80;99.90;;;;;;5072305;28;20028;-51
2022/09/09 08:27:01;;;;;;;3.05;2.72;;;17.00;99.90;;;;;;5083814;28;20467;-49
2022/09/09 08:29:28;;;;;;;6.72;3.20;;;17.20;99.90;;;;;;5078739;28;20115;-51
2022/09/09 08:31:57;;;;;;;5.60;2.90;;;17.10;99.90;;;;;;5070343;28;20104;-51
2022/09/09 08:34:25;;;;;;;4.85;2.72;;;17.00;99.90;;;;;;5071795;28;20024;-49
2022/09/09 08:36:51;;;;;;;5.38;2.75;;;16.90;99.90;;;;;;5072044;28;20051;-50
2022/09/09 08:39:20;;;;;;;12.07;3.47;;;16.90;99.90;;;;;;5071934;28;20027;-51
2022/09/09 08:42:04;;;;;;;6.47;3.20;;;16.80;99.90;;;;;;5101624;28;20387;-51
2022/09/09 08:44:50;;;;;;;3.72;3.28;;;16.70;99.90;;;;;;5071897;28;20039;-52
2022/09/09 08:47:32;;;;;;;13.38;3.10;;;16.60;99.90;;;;;;5071566;28;20024;-51
2022/09/09 08:50:17;;;;;;;3.83;2.50;;;16.50;99.90;;;;;;5072757;28;20037;-50
2022/09/09 08:53:03;;;;;;;9.85;3.08;;;16.40;99.90;;;;;;5070512;28;20039;-51
2022/09/09 08:55:48;;;;;;;3.58;2.88;;;16.30;99.90;;;;;;5071721;28;20111;-51
2022/09/09 08:58:20;;;;;;;7.63;2.90;;;16.40;99.90;;;;;;5072758;28;20024;-51
2022/09/09 09:00:52;;;;;;;3.15;2.63;;;16.30;99.90;;;;;;5071645;28;20033;-50
2022/09/09 09:03:27;;;;;;;4.00;2.53;;;16.20;99.90;;;;;;5071830;28;20039;-52
2022/09/09 09:06:30;;;;;;;3.88;2.97;;;16.10;99.90;;;;;;5071695;28;20037;-54
2022/09/09 09:09:05;;;;;;;4.30;2.72;;;16.10;99.90;;;;;;5039741;28;20093;-51
2022/09/09 09:11:39;;;;;;;7.00;3.25;;;16.20;99.90;;;;;;5072139;28;20043;-50
2022/09/09 09:14:17;;;;;;;6.25;3.00;;;16.00;99.90;;;;;;5080677;28;20078;-49
2022/09/09 09:17:04;;;;;;;6.82;2.90;;;16.00;99.90;;;;;;5071370;28;20033;-50
2022/09/09 09:19:32;;;;;;;6.43;4.13;;;16.20;99.90;;;;;;5051069;28;20033;-51
2022/09/09 09:22:31;;;;;;;5.25;3.15;;;16.20;99.90;;;;;;5051287;28;20399;-50
2022/09/09 09:25:12;;;;;;;5.50;3.00;;;16.30;99.90;;;;;;5049188;28;20071;-49
2022/09/09 09:28:01;;;;;;;10.40;5.97;;;16.40;99.90;;;;;;5051179;28;20124;-52
2022/09/09 09:30:41;;;;;;;4.80;3.00;;;16.40;99.90;;;;;;5063402;28;20028;-50
2022/09/09 09:33:27;;;;;;;7.30;4.15;;;16.40;99.90;;;;;;5071389;28;20025;-49
2022/09/09 09:35:53;;;;;;;7.30;3.50;;;16.40;99.90;;;;;;5063880;28;20036;-50
2022/09/09 09:38:27;;;;;;;8.68;3.40;;;16.40;99.90;;;;;;5071206;28;20099;-49
2022/09/09 09:40:58;;;;;;;3.90;2.58;;;16.30;99.90;;;;;;5071403;28;20028;-51
2022/09/09 09:43:30;;;;;;;4.45;3.33;;;16.40;99.90;;;;;;5071272;28;20032;-49
2022/09/09 09:45:57;;;;;;;8.20;2.95;;;16.70;99.90;;;;;;5071257;28;20103;-52
2022/09/09 09:48:24;;;;;;;6.07;3.40;;;16.90;99.90;;;;;;5070725;28;20020;-49
2022/09/09 09:50:52;;;;;;;4.70;3.85;;;17.10;99.90;;;;;;5071209;28;20341;-50
2022/09/09 09:53:33;;;;;;;8.32;2.17;;;17.30;99.90;;;;;;5074165;28;20020;-49
2022/09/09 09:56:06;;;;;;;5.15;2.17;;;17.70;99.90;;;;;;5085424;28;20083;-50
2022/09/09 09:58:39;;;;;;;5.05;2.50;;;17.70;99.90;;;;;;5091441;28;20028;-49
2022/09/09 10:01:06;;;;;;;3.10;2.00;;;17.90;99.90;;;;;;5090728;28;20059;-59
2022/09/09 10:03:37;;;;;;;3.47;1.83;;;18.10;99.90;;;;;;5090627;28;20032;-51
2022/09/09 10:06:03;;;;;;;4.28;1.55;;;18.30;99.90;;;;;;5076284;28;20059;-53
2022/09/09 10:08:29;;;;;;;3.25;1.70;;;18.30;99.90;;;;;;5071797;28;20053;-50
2022/09/09 10:11:26;;;;;;;2.33;1.73;;;18.20;99.90;;;;;;5080614;28;20110;-51
2022/09/09 10:14:09;;;;;;;2.83;1.83;;;18.10;99.90;;;;;;5082238;28;20102;-50
2022/09/09 10:16:59;;;;;;;9.13;2.38;;;18.00;99.90;;;;;;5076765;28;20451;-53
2022/09/09 10:19:32;;;;;;;9.88;2.40;;;17.80;99.90;;;;;;5079445;28;20383;-49
2022/09/09 10:22:27;;;;;;;4.20;2.40;;;17.60;99.90;;;;;;5072273;28;20036;-53
2022/09/09 10:25:15;;;;;;;5.22;2.85;;;17.60;99.90;;;;;;5062392;28;20115;-49
2022/09/09 10:27:49;;;;;;;5.38;3.42;;;17.30;99.90;;;;;;5074083;28;20036;-49
2022/09/09 10:30:29;;;;;;;3.65;3.28;;;17.10;99.90;;;;;;5072223;28;20051;-49
2022/09/09 10:33:15;;;;;;;5.53;3.03;;;17.00;99.90;;;;;;5063905;28;20587;-51
2022/09/09 10:36:21;;;;;;;5.85;3.00;;;17.00;99.90;;;;;;5063276;28;20524;-50
2022/09/09 10:38:53;;;;;;;8.38;3.15;;;17.20;99.90;;;;;;5065236;28;20356;-49
2022/09/09 10:41:44;;;;;;;4.72;2.83;;;17.10;99.90;;;;;;5063499;28;20414;-49
2022/09/09 10:44:28;;;;;;;3.72;2.70;;;17.20;99.90;;;;;;5064786;28;20471;-51
2022/09/09 10:47:29;;;;;;;5.63;3.13;;;17.30;99.90;;;;;;5063172;28;20043;-51
2022/09/09 10:49:57;;;;;;;9.48;3.00;;;17.50;99.90;;;;;;5062904;28;20033;-50
2022/09/09 10:52:50;;;;;;;5.50;2.88;;;17.60;99.90;;;;;;5062523;28;20397;-50
2022/09/09 10:55:19;;;;;;;3.30;2.95;;;17.60;99.90;;;;;;5063129;28;20032;-49
2022/09/09 10:57:45;;;;;;;5.95;2.92;;;17.60;99.90;;;;;;5063327;28;20024;-50
2022/09/09 11:00:23;;;;;;;12.90;3.28;;;17.50;99.90;;;;;;5063470;28;20035;-49
2022/09/09 11:02:54;;;;;;;3.60;3.17;;;17.50;99.90;;;;;;5062503;28;20032;-50
2022/09/09 11:05:35;;;;;;;4.35;3.35;;;17.40;99.90;;;;;;5062527;28;20073;-53
2022/09/09 11:08:21;;;;;;;6.22;2.78;;;17.30;99.90;;;;;;5062303;28;20052;-49
2022/09/09 11:11:04;;;;;;;3.03;2.72;;;17.30;99.90;;;;;;5063528;28;20365;-49
2022/09/09 11:13:51;;;;;;;6.13;3.15;;;17.40;99.90;;;;;;5062662;28;20121;-51
2022/09/09 11:16:41;;;;;;;3.15;2.70;;;17.50;99.90;;;;;;5063093;28;20034;-49
2022/09/09 11:19:25;;;;;;;8.30;4.90;;;17.40;99.90;;;;;;5062273;28;20085;-49
2022/09/09 11:21:53;;;;;;;6.00;4.50;;;17.30;99.90;;;;;;5062798;28;20029;-49
2022/09/09 11:24:45;;;;;;;5.90;4.15;;;17.20;99.90;;;;;;5061740;28;20643;-51
2022/09/09 11:27:36;;;;;;;8.25;3.75;;;17.10;99.90;;;;;;5038745;28;20048;-49
2022/09/09 11:30:12;;;;;;;4.07;3.50;;;17.00;99.90;;;;;;5062904;28;20124;-50
2022/09/09 11:33:21;;;;;;;5.25;3.72;;;17.20;99.90;;;;;;5069633;28;20035;-50
2022/09/09 11:36:10;;;;;;;7.45;3.47;;;17.00;99.90;;;;;;5062413;28;20107;-48
2022/09/09 11:38:39;;;;;;;4.78;3.20;;;17.10;99.90;;;;;;5061694;28;20029;-51
2022/09/09 11:41:08;;;;;;;3.60;2.78;;;17.00;99.90;;;;;;5062762;28;20379;-50
2022/09/09 11:43:43;;;;;;;3.97;3.40;;;17.10;99.90;;;;;;5064617;28;20033;-49
2022/09/09 11:46:10;;;;;;;5.47;3.03;;;17.20;99.90;;;;;;5080078;28;20044;-51
2022/09/09 11:48:44;;;;;;;5.20;2.50;;;17.10;99.90;;;;;;5062470;28;20119;-49
2022/09/09 11:51:26;;;;;;;7.20;3.30;;;17.30;99.90;;;;;;5062015;28;20052;-51
2022/09/09 11:54:22;;;;;;;4.35;2.88;;;17.20;99.90;;;;;;5061337;28;20064;-51
2022/09/09 11:56:48;;;;;;;7.05;2.80;;;17.10;99.90;;;;;;5067424;28;20035;-53
2022/09/09 11:59:29;;;;;;;5.82;2.97;;;17.20;99.90;;;;;;5081243;28;20036;-50
2022/09/09 12:02:18;;;;;;;4.82;2.63;;;17.30;99.90;;;;;;5081566;28;20069;-49
2022/09/09 12:05:08;;;;;;;5.47;2.95;;;17.50;99.90;;;;;;5081713;28;20058;-51
2022/09/09 12:07:38;;;;;;;7.32;3.58;;;17.60;99.90;;;;;;5063002;28;20408;-50
2022/09/09 12:10:30;;;;;;;6.90;2.97;;;17.60;99.90;;;;;;5061836;28;20955;-49
2022/09/09 12:13:07;;;;;;;3.70;2.97;;;17.60;99.90;;;;;;5061684;28;20032;-49
2022/09/09 12:15:32;;;;;;;2.55;2.35;;;17.60;99.90;;;;;;5067613;28;20025;-49
2022/09/09 12:18:00;;;;;;;6.82;2.40;;;17.50;99.90;;;;;;5090714;28;20039;-50
2022/09/09 12:20:37;;;;;;;3.45;2.50;;;17.60;99.90;;;;;;5091364;28;20028;-50
2022/09/09 12:23:30;;;;;;;5.88;2.70;;;17.60;99.90;;;;;;5092838;28;20430;-51
2022/09/09 12:26:25;;;;;;;3.33;2.00;;;17.50;99.90;;;;;;5092756;28;20024;-49
2022/09/09 12:29:12;;;;;;;3.20;2.33;;;17.50;99.90;;;;;;5079546;28;20028;-50
2022/09/09 12:31:41;;;;;;;2.72;2.03;;;17.60;99.90;;;;;;5060952;28;20115;-51
2022/09/09 12:34:35;;;;;;;4.22;2.30;;;17.50;99.90;;;;;;5062128;28;20024;-54
2022/09/09 12:37:35;;;;;;;4.03;2.03;;;17.40;99.90;;;;;;5061421;28;20037;-49
2022/09/09 12:40:05;;;;;;;5.85;2.08;;;17.40;99.90;;;;;;5057807;28;20432;-50
2022/09/09 12:42:33;;;;;;;3.42;1.73;;;17.20;99.90;;;;;;5061995;28;20090;-51
2022/09/09 12:45:02;;;;;;;4.75;2.13;;;17.20;99.90;;;;;;5061351;28;20467;-49
2022/09/09 12:47:50;;;;;;;5.78;2.53;;;17.10;99.90;;;;;;5067538;28;20060;-51
2022/09/09 12:50:27;;;;;;;2.33;1.90;;;17.10;99.90;;;;;;5076413;28;20471;-51
2022/09/09 12:52:58;;;;;;;4.10;1.80;;;17.20;99.90;;;;;;5066949;28;20577;-51
2022/09/09 12:55:36;;;;;;;7.03;2.63;;;17.20;99.90;;;;;;5078623;28;20028;-51
2022/09/09 12:58:06;;;;;;;3.20;1.88;;;17.10;99.90;;;;;;5066010;28;20149;-52
2022/09/09 13:00:33;;;;;;;4.03;2.55;;;17.20;99.90;;;;;;5071535;28;20471;-52
2022/09/09 13:03:02;;;;;;;1.92;1.80;;;17.30;99.90;;;;;;5062820;28;20036;-52
2022/09/09 13:05:35;;;;;;;2.45;1.63;;;17.30;99.90;;;;;;5061505;28;20025;-57
2022/09/09 13:08:02;;;;;;;3.92;2.40;;;17.40;99.90;;;;;;5076719;28;20040;-51
2022/09/09 13:10:33;;;;;;;4.40;3.50;;;17.40;99.90;;;;;;5060653;28;20032;-52
2022/09/09 13:12:59;;;;;;;5.30;3.70;;;17.30;99.90;;;;;;5061100;28;20529;-49
2022/09/09 13:15:29;;;;;;;8.07;2.45;;;17.30;99.90;;;;;;5060170;28;20035;-50